Latest Coastal Weather Observations for Stenhouse Bay

IDS60701

Issued at 12:01 am CST Monday 15 April 2024 (issued every 10 minutes, with the page automatically refreshed every 10 minutes)

About coastal observations | Map of coastal stations | Coastal observations for SA | Marine services | Other Formats
Station Details ID: 022049 Name: STENHOUSE BAY Lat: -35.28 Lon: 136.94 Height: 42.0 m
Data from the previous 72 hours. | See also: Recent months at Stenhouse Bay
Date/Time
CST
Wind Sea
Height
m
Swell Vis
km
Cloud Weather Temp
°C
Press
MSL
hPa
Rain since
9am
mm
Dir  Spd
kts
Gust
kts
Height
m
Period
s
Dir
15/12:00am SSE 5 6 - - - - - - - 13.8 1024.4 0.0
 
Date/Time
CST
Wind Sea
Height
m
Swell Vis
km
Cloud Weather Temp
°C
Press
MSL
hPa
Rain since
9am
mm
Dir  Spd
kts
Gust
kts
Height
m
Period
s
Dir
14/11:30pm ESE 6 7 - - - - - - - 13.8 1024.4 0.0
14/11:00pm SE 6 7 - - - - - - - 14.1 1024.5 0.0
14/10:30pm SE 6 8 - - - - - - - 14.4 1024.7 0.0
14/10:00pm SSE 6 9 - - - - - - - 14.6 1024.9 0.0
14/09:30pm SE 7 10 - - - - - - - 14.6 1024.7 0.0
14/09:00pm SE 7 11 - - - - - - - 14.7 1024.4 0.0
14/08:30pm SE 8 12 - - - - - - - 14.8 1024.4 0.0
14/08:00pm SE 8 10 - - - - - - - 15.1 1024.3 0.0
14/07:30pm SSE 11 13 - - - - - - - 15.6 1024.0 0.0
14/07:00pm S 11 13 - - - - - - - 15.6 1023.7 0.0
14/06:30pm SSW 9 12 - - - - - - - 15.6 1023.3 0.0
14/06:00pm SW 7 11 - - - - - - - 15.6 1023.2 0.0
14/05:30pm SW 9 12 - - - - - - - 16.2 1023.0 0.0
14/05:00pm SW 9 11 - - - - - - - 16.7 1022.8 0.0
14/04:30pm SW 11 14 - - - - - - - 16.3 1022.9 0.0
14/04:00pm SW 10 13 - - - - - - - 17.4 1022.8 0.0
14/03:30pm SW 10 13 - - - - - - - 17.9 1022.9 0.0
14/03:00pm SW 11 14 - - - - - - - 17.4 1022.9 0.0
14/02:30pm SW 9 11 - - - - - - - 17.6 1022.8 0.0
14/02:00pm SW 9 12 - - - - - - - 18.0 1022.9 0.0
14/01:30pm SW 6 8 - - - - - - - 18.4 1023.0 0.0
14/01:00pm SSW 5 8 - - - - - - - 17.7 1023.2 0.0
14/12:30pm S 7 9 - - - - - - - 17.8 1023.6 0.0
14/12:00pm S 7 9 - - - - - - - 17.5 1023.8 0.0
14/11:30am SSE 6 7 - - - - - - - 17.0 1023.9 0.0
14/11:00am SSE 6 7 - - - - - - - 16.8 1024.1 0.0
14/10:30am SE 5 6 - - - - - - - 16.9 1024.1 0.0
14/10:00am SE 5 7 - - - - - - - 16.8 1024.2 0.0
14/09:30am SE 6 8 - - - - - - - 16.2 1024.2 0.0
14/09:00am SE 8 10 - - - - - - - 16.2 1024.0 0.0
14/08:30am SE 6 8 - - - - - - - 16.1 1024.0 0.0
14/08:00am SE 5 7 - - - - - - - 15.1 1023.9 0.0
14/07:30am ESE 4 6 - - - - - - - 13.9 1023.5 0.0
14/07:00am ESE 3 4 - - - - - - - 12.8 1023.5 0.0
14/06:30am ESE 3 5 - - - - - - - 12.7 1023.2 0.0
14/06:00am SE 3 4 - - - - - - - 12.7 1023.2 0.0
14/05:30am E 2 3 - - - - - - - 12.7 1023.1 0.0
14/05:00am CALM 0 1 - - - - - - - 12.8 1023.1 0.0
14/04:30am E 2 7 - - - - - - - 12.7 1022.8 0.0
14/04:00am ESE 7 9 - - - - - - - 13.4 1022.7 0.0
14/03:30am ESE 6 9 - - - - - - - 13.3 1022.8 0.0
14/03:00am ESE 7 8 - - - - - - - 13.4 1022.9 0.0
14/02:30am ESE 8 10 - - - - - - - 13.5 1023.1 0.0
14/02:00am ESE 9 11 - - - - - - - 13.7 1023.3 0.0
14/01:30am ESE 9 11 - - - - - - - 13.7 1023.5 0.0
14/01:00am SE 9 11 - - - - - - - 13.9 1023.4 0.0
14/12:30am ESE 9 11 - - - - - - - 13.7 1023.8 0.0
14/12:00am E 4 5 - - - - - - - 12.6 1023.7 0.0
 
Date/Time
CST
Wind Sea
Height
m
Swell Vis
km
Cloud Weather Temp
°C
Press
MSL
hPa
Rain since
9am
mm
Dir  Spd
kts
Gust
kts
Height
m
Period
s
Dir
13/11:30pm ENE 2 3 - - - - - - - 13.2 1023.8 0.0
13/11:00pm E 6 7 - - - - - - - 13.6 1023.9 0.0
13/10:30pm ESE 4 5 - - - - - - - 13.4 1024.3 0.0
13/10:00pm SSE 5 8 - - - - - - - 14.4 1024.3 0.0
13/09:30pm SSE 9 11 - - - - - - - 14.8 1024.5 0.0
13/09:00pm SSE 9 12 - - - - - - - 14.5 1024.4 0.0
13/08:30pm SW 6 9 - - - - - - - 14.7 1024.3 0.0
13/08:00pm SW 7 10 - - - - - - - 14.7 1024.4 0.0
13/07:30pm SW 6 8 - - - - - - - 14.4 1024.4 0.0
13/07:00pm SW 6 8 - - - - - - - 14.2 1024.4 0.0
13/06:30pm SW 7 8 - - - - - - - 14.2 1023.9 0.0
13/06:00pm SW 5 7 - - - - - - - 14.4 1023.5 0.0
13/05:30pm SW 5 7 - - - - - - - 15.6 1023.3 0.0
13/05:00pm SW 5 6 - - - - - - - 16.7 1023.2 0.0
13/04:30pm SW 5 6 - - - - - - - 17.1 1022.9 0.0
13/04:00pm SW 4 5 - - - - - - - 17.5 1023.1 0.0
13/03:30pm SSW 5 6 - - - - - - - 17.5 1023.4 0.0
13/03:00pm S 6 8 - - - - - - - 18.0 1023.7 0.0
13/02:30pm S 7 8 - - - - - - - 17.6 1023.9 0.0
13/02:00pm SSW 6 7 - - - - - - - 17.1 1024.1 0.0
13/01:30pm SSW 4 5 - - - - - - - 16.8 1024.4 0.0
13/01:00pm SSW 5 7 - - - - - - - 16.5 1024.9 0.0
13/12:30pm SW 6 8 - - - - - - - 16.6 1025.4 0.0
13/12:00pm S 4 5 - - - - - - - 17.1 1025.7 0.0
13/11:30am ESE 3 4 - - - - - - - 16.2 1026.0 0.0
13/11:00am SE 4 5 - - - - - - - 16.0 1026.0 0.0
13/10:30am ESE 3 5 - - - - - - - 16.4 1026.0 0.0
13/10:00am SE 3 5 - - - - - - - 15.9 1026.1 0.0
13/09:30am NNE 1 3 - - - - - - - 16.3 1026.1 0.0
13/09:00am NE 2 3 - - - - - - - 15.2 1026.1 0.2
13/08:30am SE 4 5 - - - - - - - 15.2 1026.0 0.2
13/08:00am CALM 0 0 - - - - - - - 13.6 1025.7 0.2
13/07:30am SE 3 4 - - - - - - - 13.1 1025.3 0.2
13/07:00am S 6 9 - - - - - - - 13.0 1025.1 0.0
13/06:30am CALM 0 0 - - - - - - - 12.9 1024.9 0.0
13/06:00am CALM 0 0 - - - - - - - 13.1 1024.8 0.0
13/05:30am SW 1 3 - - - - - - - 13.2 1024.8 0.0
13/05:00am SE 1 1 - - - - - - - 13.4 1024.5 0.0
13/04:30am S 9 12 - - - - - - - 14.2 1024.2 0.0
13/04:00am S 7 8 - - - - - - - 14.8 1024.1 0.0
13/03:30am S 7 9 - - - - - - - 14.9 1024.0 0.0
13/03:00am S 3 4 - - - - - - - 14.8 1024.0 0.0
13/02:30am SSW 6 9 - - - - - - - 14.9 1024.1 0.0
13/02:00am S 5 8 - - - - - - - 14.9 1024.4 0.0
13/01:30am SSE 8 9 - - - - - - - 14.5 1024.4 0.0
13/01:00am S 4 6 - - - - - - - 13.7 1024.5 0.0
13/12:30am SSW 5 7 - - - - - - - 13.8 1024.7 0.0
13/12:00am SSE 4 5 - - - - - - - 13.4 1024.8 0.0
 
Date/Time
CST
Wind Sea
Height
m
Swell Vis
km
Cloud Weather Temp
°C
Press
MSL
hPa
Rain since
9am
mm
Dir  Spd
kts
Gust
kts
Height
m
Period
s
Dir
12/11:30pm SSE 7 9 - - - - - - - 14.2 1024.8 0.0
12/11:00pm SSE 8 9 - - - - - - - 14.2 1024.8 0.0
12/10:30pm S 8 11 - - - - - - - 14.5 1024.9 0.0
12/10:00pm S 11 15 - - - - - - - 14.6 1025.0 0.0
12/09:30pm S 9 12 - - - - - - - 14.9 1025.0 0.0
12/09:00pm SSW 6 9 - - - - - - - 14.8 1024.9 0.0
12/08:30pm SSW 8 13 - - - - - - - 15.1 1024.8 0.0
12/08:00pm SW 8 12 - - - - - - - 15.1 1024.7 0.0
12/07:30pm SSW 10 15 - - - - - - - 15.0 1024.5 0.0
12/07:00pm SW 8 13 - - - - - - - 14.8 1024.2 0.0
12/06:30pm SW 11 14 - - - - - - - 14.8 1023.8 0.0
12/06:00pm SW 10 13 - - - - - - - 15.0 1023.6 0.0
12/05:30pm SW 9 13 - - - - - - - 15.6 1023.5 0.0
12/05:00pm SW 10 14 - - - - - - - 16.4 1023.4 0.0
12/04:30pm WSW 9 15 - - - - - - - 17.5 1023.3 0.0
12/04:00pm WSW 9 13 - - - - - - - 17.7 1023.2 0.0
12/03:30pm WSW 9 13 - - - - - - - 18.4 1023.2 0.0
12/03:00pm WSW 8 11 - - - - - - - 18.0 1023.4 0.0
12/02:30pm WSW 4 8 - - - - - - - 18.0 1023.6 0.0
12/02:00pm WSW 2 5 - - - - - - - 17.3 1023.9 0.0
12/01:30pm S 2 4 - - - - - - - 16.8 1024.1 0.0
12/01:00pm S 4 5 - - - - - - - 16.7 1024.5 0.0
12/12:30pm SSE 4 6 - - - - - - - 16.6 1025.1 0.0
12/12:00pm SSE 4 6 - - - - - - - 17.2 1025.5 0.0
12/11:30am SSE 4 5 - - - - - - - 16.7 1025.7 0.0
12/11:00am SSE 4 6 - - - - - - - 16.4 1026.0 0.0
12/10:30am SSE 6 9 - - - - - - - 15.9 1025.9 0.0
12/10:00am S 7 9 - - - - - - - 15.9 1026.0 0.0
12/09:30am S 5 7 - - - - - - - 15.8 1026.1 0.0
12/09:00am SSE 2 2 - - - - - - - 15.2 1026.1 0.0
12/08:30am WSW 1 5 - - - - - - - 15.0 1026.3 0.0
12/08:00am CALM 0 0 - - - - - - - 14.5 1026.1 0.0
12/07:30am CALM 0 3 - - - - - - - 14.0 1025.6 0.0
12/07:00am NNW 1 2 - - - - - - - 13.7 1025.4 0.0
12/06:30am CALM 0 0 - - - - - - - 13.7 1025.2 0.0
12/06:00am CALM 0 0 - - - - - - - 14.0 1025.0 0.0
12/05:30am E 2 3 - - - - - - - 14.1 1024.8 0.0
12/05:00am SSE 3 5 - - - - - - - 14.3 1024.5 0.0
12/04:30am S 3 5 - - - - - - - 14.3 1024.1 0.0
12/04:00am SSE 5 7 - - - - - - - 14.3 1023.9 0.0
12/03:30am SSW 5 7 - - - - - - - 14.4 1023.9 0.0
12/03:00am S 2 5 - - - - - - - 14.4 1024.0 0.0
12/02:30am SSE 7 9 - - - - - - - 14.6 1024.2 0.0
12/02:00am S 7 10 - - - - - - - 14.6 1024.8 0.0
12/01:30am S 7 10 - - - - - - - 14.6 1025.1 0.0
12/01:00am S 9 10 - - - - - - - 14.5 1025.1 0.0
12/12:30am S 8 11 - - - - - - - 14.7 1025.3 0.0

Other formats

Comma delimited format used in spreadsheet applications
http://www.bom.gov.au/fwo/IDS60701/IDS60701.95806.axf

JavaScript Object Notation format (JSON) in row-major order
http://www.bom.gov.au/fwo/IDS60701/IDS60701.95806.json

Data quality

Most of these data are generated automatically and are frequently updated. Quality checks on data are not normally performed. It is possible for incorrect values to appear. Refer to information at About Latest Weather Observations and please check the disclaimer before using these data.